createdAt,value
2018-02-21T09:43:45.600Z,3248
2018-02-21T09:44:47.441Z,3244
2018-02-21T09:45:49.311Z,3244
2018-02-21T09:46:51.165Z,3280
2018-02-21T09:47:52.971Z,3256
2018-02-21T09:48:54.761Z,3196
2018-02-21T09:49:56.636Z,3268
2018-02-21T09:50:58.519Z,3276
2018-02-21T09:52:00.395Z,3268
2018-02-21T09:53:14.519Z,3328
2018-02-21T09:54:16.399Z,3332
2018-02-21T09:55:18.271Z,3300
2018-02-21T09:56:20.132Z,3328
2018-02-21T09:57:21.948Z,3344
2018-02-21T09:58:23.741Z,3340
2018-02-21T09:59:25.618Z,3360
2018-02-21T10:00:27.482Z,3400
2018-02-21T10:01:29.358Z,3396
2018-02-21T10:02:43.481Z,3520
2018-02-21T10:03:45.345Z,3560
2018-02-21T10:04:47.199Z,3456
2018-02-21T10:05:49.081Z,3400
2018-02-21T10:06:50.880Z,3388
2018-02-21T10:07:52.691Z,3452
2018-02-21T10:08:54.567Z,3460
2018-02-21T10:09:56.429Z,3556
2018-02-21T10:10:58.310Z,3808
2018-02-21T10:12:12.457Z,3980
2018-02-21T10:13:14.331Z,3564
2018-02-21T10:14:16.194Z,3548
2018-02-21T10:15:18.073Z,3560
2018-02-21T10:16:19.885Z,3560
2018-02-21T10:17:21.662Z,3448
2018-02-21T10:18:23.531Z,3412
2018-02-21T10:19:25.416Z,3548
2018-02-21T10:20:27.291Z,3560
2018-02-21T10:21:41.442Z,3480
2018-02-21T10:22:43.304Z,3508
2018-02-21T10:23:45.168Z,3544
2018-02-21T10:24:47.030Z,3460
2018-02-21T10:25:48.843Z,3540
2018-02-21T10:26:50.634Z,3500
2018-02-21T10:27:52.496Z,3512
2018-02-21T10:28:54.384Z,3412
2018-02-21T10:29:56.285Z,3432
2018-02-21T10:31:10.432Z,3492
2018-02-21T10:32:12.313Z,3492
2018-02-21T10:33:14.197Z,3500
2018-02-21T10:34:16.088Z,3528
2018-02-21T10:35:17.908Z,3580
2018-02-21T10:36:19.699Z,3500
2018-02-21T10:37:21.569Z,3580
2018-02-21T10:38:23.445Z,3564
2018-02-21T10:39:25.330Z,3864
2018-02-21T10:40:39.461Z,3632
2018-02-21T10:41:41.317Z,3576
2018-02-21T10:42:43.203Z,3448
2018-02-21T10:43:45.119Z,3540
2018-02-21T10:44:46.983Z,3612
2018-02-21T10:45:48.855Z,3584
2018-02-21T10:46:50.763Z,3556
2018-02-21T10:47:52.656Z,3544
2018-02-21T10:48:54.514Z,3536
2018-02-21T10:50:08.634Z,3532
2018-02-21T10:51:10.507Z,3572
2018-02-21T10:52:12.380Z,3608
2018-02-21T10:53:14.259Z,3640
2018-02-21T10:54:16.080Z,3696
2018-02-21T10:55:17.892Z,3688
2018-02-21T10:56:19.750Z,3648
2018-02-21T10:57:21.629Z,3696
2018-02-21T10:58:23.485Z,3648
2018-02-21T10:59:37.615Z,3664
2018-02-21T11:00:39.483Z,3676
2018-02-21T11:01:41.345Z,3660
2018-02-21T11:02:43.219Z,3676
2018-02-21T11:03:45.013Z,3628
2018-02-21T11:04:46.811Z,3636
2018-02-21T11:05:48.684Z,3620
2018-02-21T11:06:50.548Z,3656
2018-02-21T11:07:52.433Z,3652
2018-02-21T11:09:06.549Z,3664
2018-02-21T11:10:08.408Z,3720
2018-02-21T11:11:10.354Z,3708
2018-02-21T11:12:12.154Z,3676
2018-02-21T11:13:13.950Z,3684
2018-02-21T11:14:15.743Z,3708
2018-02-21T11:15:17.595Z,3708
2018-02-21T11:16:19.480Z,3784
2018-02-21T11:17:21.358Z,3836
2018-02-21T11:18:35.498Z,3816
2018-02-21T11:19:37.378Z,3796
2018-02-21T11:20:39.254Z,3792
2018-02-21T11:21:41.111Z,3824
2018-02-21T11:22:42.902Z,3800
2018-02-21T11:23:44.729Z,3776
2018-02-21T11:24:46.593Z,3776
2018-02-21T11:25:48.475Z,3768
2018-02-21T11:26:50.356Z,3808
2018-02-21T11:28:04.479Z,3804
2018-02-21T11:29:06.355Z,3848
2018-02-21T11:30:08.228Z,3812
2018-02-21T11:31:10.082Z,3716
2018-02-21T11:32:11.875Z,3844
2018-02-21T11:33:13.690Z,3936
2018-02-21T11:34:15.577Z,3992
2018-02-21T11:35:17.463Z,3856
2018-02-21T11:36:19.324Z,3788
2018-02-21T11:37:33.466Z,3748
2018-02-21T11:38:35.337Z,3824
2018-02-21T11:39:37.208Z,3836
2018-02-21T11:40:39.085Z,3836
2018-02-21T11:41:40.910Z,3848
2018-02-21T11:42:42.819Z,3852
2018-02-21T11:43:44.732Z,3912
2018-02-21T11:44:46.622Z,3936
2018-02-21T11:45:48.478Z,3996
2018-02-21T11:47:02.621Z,4252
2018-02-21T11:48:04.494Z,4564
2018-02-21T11:49:06.370Z,4164
2018-02-21T11:50:08.231Z,4036
2018-02-21T11:51:10.042Z,4048
2018-02-21T11:52:11.834Z,4048
2018-02-21T11:53:13.688Z,4084
2018-02-21T11:54:15.547Z,4204
2018-02-21T11:55:17.406Z,4168
2018-02-21T11:56:31.550Z,4036
2018-02-21T11:57:33.401Z,4040
2018-02-21T11:58:35.263Z,4024
2018-02-21T11:59:37.136Z,4064
2018-02-21T12:00:38.936Z,4060
2018-02-21T12:01:40.808Z,4008
2018-02-21T12:02:42.657Z,3992
2018-02-21T12:03:44.510Z,3988
2018-02-21T12:04:46.408Z,3976
2018-02-21T12:06:00.488Z,3972
2018-02-21T12:07:02.350Z,3968
2018-02-21T12:08:04.223Z,3952
2018-02-21T12:09:06.082Z,3916
2018-02-21T12:10:07.962Z,3868
2018-02-21T12:11:09.724Z,3872
2018-02-21T12:12:11.596Z,3884
2018-02-21T12:13:14.214Z,3912
2018-02-21T12:14:16.047Z,3868
2018-02-21T12:15:30.175Z,3852
2018-02-21T12:16:32.050Z,3844
2018-02-21T12:17:33.932Z,3836
2018-02-21T12:18:35.787Z,3828
2018-02-21T12:19:37.601Z,3836
2018-02-21T12:20:39.420Z,3848
2018-02-21T12:21:41.300Z,3880
2018-02-21T12:22:43.174Z,3856
2018-02-21T12:23:45.052Z,3880
2018-02-21T12:24:59.193Z,3872
2018-02-21T12:26:01.069Z,3868
2018-02-21T12:27:02.929Z,3892
2018-02-21T12:28:04.787Z,3920
2018-02-21T12:29:06.583Z,3912
2018-02-21T12:30:08.398Z,3952
2018-02-21T12:31:10.276Z,3952
2018-02-21T12:32:12.162Z,3976
2018-02-21T12:33:14.036Z,3968
2018-02-21T12:34:28.214Z,3904
2018-02-21T12:35:30.088Z,3844
2018-02-21T12:36:31.966Z,3884
2018-02-21T12:37:33.839Z,3924
2018-02-21T12:38:35.640Z,3928
2018-02-21T12:39:37.455Z,3896
2018-02-21T12:40:39.354Z,3892
2018-02-21T12:41:41.182Z,3928
2018-02-21T12:42:43.059Z,3920
2018-02-21T12:43:57.201Z,3904
2018-02-21T12:44:59.080Z,3896
2018-02-21T12:46:00.959Z,3860
2018-02-21T12:47:02.814Z,3780
2018-02-21T12:48:04.624Z,3832
2018-02-21T12:49:06.415Z,3836
2018-02-21T12:50:08.325Z,3860
2018-02-21T12:51:10.150Z,3856
2018-02-21T12:52:12.003Z,3852
2018-02-21T12:53:26.124Z,3872
2018-02-21T12:54:27.986Z,3884
2018-02-21T12:55:29.846Z,3912
2018-02-21T12:56:31.714Z,3916
2018-02-21T12:57:33.511Z,3900
2018-02-21T12:58:35.303Z,3868
2018-02-21T12:59:37.180Z,3852
2018-02-21T13:00:39.062Z,3836
2018-02-21T13:01:40.938Z,3840
2018-02-21T13:02:55.111Z,3836
2018-02-21T13:03:56.983Z,3824
2018-02-21T13:04:58.843Z,3780
2018-02-21T13:06:00.712Z,3696
2018-02-21T13:07:02.508Z,3680
2018-02-21T13:08:04.308Z,3696
2018-02-21T13:09:06.160Z,3668
2018-02-21T13:10:08.027Z,3628
2018-02-21T13:11:09.876Z,3624
2018-02-21T13:12:24.000Z,3600
2018-02-21T13:13:25.855Z,3612
2018-02-21T13:14:27.715Z,3584
2018-02-21T13:15:29.569Z,3568
2018-02-21T13:16:31.366Z,3596
2018-02-21T13:17:33.178Z,3596
2018-02-21T13:18:35.030Z,3620
2018-02-21T13:19:36.890Z,3616
2018-02-21T13:20:38.751Z,3608
2018-02-21T13:21:52.893Z,3592
2018-02-21T13:22:54.771Z,3576
2018-02-21T13:23:56.630Z,3572
2018-02-21T13:24:58.504Z,3572
2018-02-21T13:26:00.293Z,3576
2018-02-21T13:27:02.092Z,3584
2018-02-21T13:28:03.949Z,3568
2018-02-21T13:29:05.806Z,3560
2018-02-21T13:30:07.681Z,3584
2018-02-21T13:31:21.822Z,3628
2018-02-21T13:32:23.682Z,3608
2018-02-21T13:33:25.562Z,3644
2018-02-21T13:34:27.439Z,3668
2018-02-21T13:35:29.256Z,3680
2018-02-21T13:36:31.070Z,3680
2018-02-21T13:37:32.917Z,3656
2018-02-21T13:38:34.779Z,3608
2018-02-21T13:39:36.653Z,3600
2018-02-21T13:40:50.777Z,3608
2018-02-21T13:41:52.636Z,3588
2018-02-21T13:42:54.497Z,3592
2018-02-21T13:43:56.369Z,3580
2018-02-21T13:44:58.168Z,3612
2018-02-21T13:45:59.977Z,3668
2018-02-21T13:47:01.847Z,3704
2018-02-21T13:48:03.713Z,3740
2018-02-21T13:49:05.571Z,3792
2018-02-21T13:50:19.705Z,3692
2018-02-21T13:51:21.590Z,3700
2018-02-21T13:52:23.435Z,3688
2018-02-21T13:53:25.290Z,3656
2018-02-21T13:54:27.087Z,3624
2018-02-21T13:55:28.909Z,3572
2018-02-21T13:56:30.764Z,3612
2018-02-21T13:57:32.641Z,3592
2018-02-21T13:58:34.513Z,3576
2018-02-21T13:59:48.638Z,3568
2018-02-21T14:00:50.497Z,3564
2018-02-21T14:01:52.375Z,3608
2018-02-21T14:02:54.231Z,3616
2018-02-21T14:03:56.023Z,3644
2018-02-21T14:04:57.815Z,3648
2018-02-21T14:05:59.676Z,3664
2018-02-21T14:07:01.552Z,3704
2018-02-21T14:08:03.409Z,3752
2018-02-21T14:09:17.548Z,3764
2018-02-21T14:10:19.418Z,3692
2018-02-21T14:11:21.269Z,3648
2018-02-21T14:12:23.126Z,3648
2018-02-21T14:13:24.941Z,3568
2018-02-21T14:14:26.756Z,3516
2018-02-21T14:15:28.609Z,3560
2018-02-21T14:16:30.468Z,3556
2018-02-21T14:17:32.355Z,3528
2018-02-21T14:18:46.459Z,3568
2018-02-21T14:19:48.335Z,3572
2018-02-21T14:20:50.215Z,3592
2018-02-21T14:21:52.090Z,3592
2018-02-21T14:22:53.881Z,3488
2018-02-21T14:23:55.672Z,3492
2018-02-21T14:24:57.534Z,3488
2018-02-21T14:25:59.412Z,3492
2018-02-21T14:27:01.290Z,3496
2018-02-21T14:28:15.429Z,3536
2018-02-21T14:29:17.294Z,3460
2018-02-21T14:30:19.152Z,3464
2018-02-21T14:31:21.028Z,3448
2018-02-21T14:32:22.843Z,3400
2018-02-21T14:33:24.637Z,3372
2018-02-21T14:34:26.495Z,3388
2018-02-21T14:35:28.350Z,3288
2018-02-21T14:36:30.226Z,3260
2018-02-21T14:37:44.347Z,3248
2018-02-21T14:38:46.208Z,3288
2018-02-21T14:39:48.086Z,3296
2018-02-21T14:40:49.963Z,3272
2018-02-21T14:41:51.755Z,3236
2018-02-21T14:42:53.548Z,3224
2018-02-21T14:43:55.406Z,3192
2018-02-21T14:44:57.285Z,3184
2018-02-21T14:45:59.158Z,3156
2018-02-21T14:47:13.333Z,3144
2018-02-21T14:48:15.207Z,3164
2018-02-21T14:49:17.086Z,3140
2018-02-21T14:50:18.962Z,3100
2018-02-21T14:51:20.780Z,3072
2018-02-21T14:52:22.595Z,3060
2018-02-21T14:53:24.469Z,3040
2018-02-21T14:54:26.325Z,3028
2018-02-21T14:55:28.176Z,3040
2018-02-21T14:56:42.359Z,3044
2018-02-21T14:57:44.209Z,3032
2018-02-21T14:58:46.092Z,3008
2018-02-21T14:59:47.961Z,2988
2018-02-21T15:00:49.762Z,2964
2018-02-21T15:01:51.564Z,2944
2018-02-21T15:02:53.437Z,2920
2018-02-21T15:03:55.312Z,2916
2018-02-21T15:04:57.169Z,2900
2018-02-21T15:06:11.364Z,2884
2018-02-21T15:07:13.231Z,2860
2018-02-21T15:08:15.101Z,2844
2018-02-21T15:09:16.974Z,2828
2018-02-21T15:10:18.767Z,2816
2018-02-21T15:11:20.586Z,2792
2018-02-21T15:12:22.423Z,2768
2018-02-21T15:13:24.239Z,2748
2018-02-21T15:14:26.095Z,2732
2018-02-21T15:15:40.240Z,2716
2018-02-21T15:16:42.120Z,2688
2018-02-21T15:17:44.044Z,2656
2018-02-21T15:18:45.866Z,2628
2018-02-21T15:19:47.660Z,2620
2018-02-21T15:20:49.473Z,2592
2018-02-21T15:21:51.328Z,2568
2018-02-21T15:22:53.190Z,2536
2018-02-21T15:23:55.063Z,2500
2018-02-21T15:25:09.195Z,2444
2018-02-21T15:26:11.051Z,2412
2018-02-21T15:27:12.914Z,2400
2018-02-21T15:28:14.791Z,2376
2018-02-21T15:29:16.608Z,2352
2018-02-21T15:30:18.430Z,2336
2018-02-21T15:31:20.285Z,2320
2018-02-21T15:32:22.158Z,2284
2018-02-21T15:33:24.025Z,2244
2018-02-21T15:34:38.205Z,2184
2018-02-21T15:35:40.076Z,2160
2018-02-21T15:36:41.953Z,2128
2018-02-21T15:37:43.809Z,2100
2018-02-21T15:38:45.642Z,2068
2018-02-21T15:39:47.430Z,2032
2018-02-21T15:40:49.299Z,1992
2018-02-21T15:41:51.161Z,1964
2018-02-21T15:42:53.011Z,1936
2018-02-21T15:44:07.185Z,1904
2018-02-21T15:45:09.082Z,1864
2018-02-21T15:46:10.918Z,1820
2018-02-21T15:47:12.779Z,1776
2018-02-21T15:48:14.572Z,1736
2018-02-21T15:49:16.381Z,1692
2018-02-21T15:50:18.251Z,1652
2018-02-21T15:51:20.115Z,1608
2018-02-21T15:52:21.972Z,1564
2018-02-21T15:53:36.113Z,1512
2018-02-21T15:54:37.968Z,1480
2018-02-21T15:55:39.829Z,1432
2018-02-21T15:56:41.679Z,1392
2018-02-21T15:57:43.475Z,1356
2018-02-21T15:58:45.271Z,1312
2018-02-21T15:59:47.142Z,1272
2018-02-21T16:00:49.002Z,1236
2018-02-21T16:01:50.880Z,1192
2018-02-21T16:03:05.054Z,1144
2018-02-21T16:04:06.924Z,1104
2018-02-21T16:05:08.784Z,1064
2018-02-21T16:06:10.708Z,1020
2018-02-21T16:07:12.470Z,980
2018-02-21T16:08:14.257Z,940
2018-02-21T16:09:16.109Z,900
2018-02-21T16:10:17.986Z,856
2018-02-21T16:11:19.840Z,816
2018-02-21T16:12:34.009Z,764
2018-02-21T16:13:35.862Z,728
2018-02-21T16:14:37.722Z,684
2018-02-21T16:15:39.594Z,648
2018-02-21T16:16:41.404Z,608
2018-02-21T16:17:43.197Z,568
2018-02-21T16:18:45.068Z,532
2018-02-21T16:19:46.927Z,496
2018-02-21T16:20:48.799Z,456
2018-02-21T16:22:02.925Z,416
2018-02-21T16:23:04.812Z,384
2018-02-21T16:24:06.657Z,348
2018-02-21T16:25:08.504Z,316
2018-02-21T16:26:10.304Z,284
2018-02-21T16:27:12.112Z,256
2018-02-21T16:28:13.968Z,228
2018-02-21T16:29:15.828Z,204
2018-02-21T16:30:17.701Z,184
2018-02-21T16:31:31.818Z,156
2018-02-21T16:32:33.671Z,140
2018-02-21T16:33:35.533Z,120
2018-02-21T16:34:37.399Z,108
2018-02-21T16:35:39.194Z,96
2018-02-21T16:36:40.998Z,84
2018-02-21T16:37:42.857Z,72
2018-02-21T16:38:44.707Z,64
2018-02-21T16:39:46.563Z,56
2018-02-21T16:41:00.677Z,44
2018-02-21T16:42:02.532Z,40
2018-02-21T16:43:04.387Z,36
2018-02-21T16:44:06.297Z,32
2018-02-21T16:45:08.050Z,24
2018-02-21T16:46:09.855Z,20
2018-02-21T16:47:11.704Z,16
2018-02-21T16:48:13.555Z,12
2018-02-21T16:49:15.410Z,12
2018-02-21T16:50:29.544Z,8
2018-02-21T16:51:31.395Z,8
2018-02-21T16:52:33.252Z,8
2018-02-21T16:53:35.120Z,4
2018-02-21T16:54:36.916Z,8
2018-02-21T16:55:38.716Z,4
2018-02-21T16:56:40.569Z,4
2018-02-21T16:57:42.427Z,4
2018-02-21T16:58:44.298Z,0
2018-02-21T16:59:58.407Z,4
2018-02-21T17:01:00.288Z,0
2018-02-21T17:02:02.139Z,0
2018-02-21T17:03:03.990Z,0
2018-02-21T17:04:05.805Z,0
2018-02-21T17:05:07.605Z,0
2018-02-21T17:06:09.480Z,0
2018-02-21T17:07:11.358Z,0
2018-02-21T17:08:13.230Z,0
2018-02-21T17:09:27.413Z,0
2018-02-21T17:10:29.269Z,0
2018-02-21T17:11:31.138Z,0
2018-02-21T17:12:32.991Z,0
2018-02-21T17:13:34.792Z,0
2018-02-21T17:14:36.596Z,0
2018-02-21T17:15:38.451Z,0
2018-02-21T17:16:40.308Z,0
2018-02-21T17:17:42.161Z,0
2018-02-21T17:18:56.329Z,0
2018-02-21T17:19:58.198Z,0
2018-02-21T17:21:00.050Z,0
2018-02-21T17:22:01.901Z,0
2018-02-21T17:23:03.710Z,0
2018-02-21T17:24:05.516Z,0
2018-02-21T17:25:07.368Z,0
2018-02-21T17:26:09.243Z,0
2018-02-21T17:27:11.118Z,0
2018-02-21T17:28:25.276Z,0
2018-02-21T17:29:27.133Z,0
2018-02-21T17:30:29.002Z,0
2018-02-21T17:31:30.853Z,0
2018-02-21T17:32:32.661Z,0
2018-02-21T17:33:34.449Z,0
2018-02-21T17:34:36.258Z,0
2018-02-21T17:35:38.075Z,0
2018-02-21T17:36:39.881Z,0
2018-02-21T17:37:54.018Z,0
2018-02-21T17:38:55.892Z,0
2018-02-21T17:39:57.766Z,0
2018-02-21T17:40:59.635Z,0
2018-02-21T17:42:01.451Z,0
2018-02-21T17:43:03.250Z,0
2018-02-21T17:44:05.179Z,0
2018-02-21T17:45:06.983Z,0
2018-02-21T17:46:08.834Z,0
2018-02-21T17:47:22.976Z,0
2018-02-21T17:48:24.844Z,0
2018-02-21T17:49:26.697Z,0
2018-02-21T17:50:28.547Z,0
2018-02-21T17:51:30.357Z,0
2018-02-21T17:52:32.161Z,0
2018-02-21T17:53:34.011Z,0
2018-02-21T17:54:35.871Z,0
2018-02-21T17:55:37.736Z,0
2018-02-21T17:56:51.858Z,0
2018-02-21T17:57:53.727Z,0
2018-02-21T17:58:55.597Z,0
2018-02-21T17:59:57.453Z,0
2018-02-21T18:00:59.479Z,0
2018-02-21T18:02:01.275Z,0
2018-02-21T18:03:03.145Z,0
2018-02-21T18:04:05.000Z,0
2018-02-21T18:05:06.870Z,0
2018-02-21T18:06:21.003Z,0
2018-02-21T18:07:22.862Z,0
2018-02-21T18:08:24.713Z,0
2018-02-21T18:09:26.568Z,0
2018-02-21T18:10:28.376Z,0
2018-02-21T18:11:30.181Z,0
2018-02-21T18:12:32.086Z,0
2018-02-21T18:13:33.960Z,0
2018-02-21T18:14:35.842Z,0
2018-02-21T18:15:49.964Z,0
2018-02-21T18:16:51.816Z,0
2018-02-21T18:17:53.687Z,0
2018-02-21T18:18:55.539Z,0
2018-02-21T18:19:57.345Z,0
2018-02-21T18:20:59.136Z,0
2018-02-21T18:22:01.006Z,0
2018-02-21T18:23:02.879Z,0
2018-02-21T18:24:04.756Z,0
2018-02-21T18:25:18.945Z,0
2018-02-21T18:26:20.820Z,0
2018-02-21T18:27:22.695Z,0
2018-02-21T18:28:24.564Z,0
2018-02-21T18:29:26.359Z,0
2018-02-21T18:30:28.159Z,0
2018-02-21T18:31:30.008Z,0
2018-02-21T18:32:31.897Z,0
2018-02-21T18:33:33.770Z,0
2018-02-21T18:34:47.939Z,0
2018-02-21T18:35:49.805Z,0
2018-02-21T18:36:51.678Z,0
2018-02-21T18:37:53.545Z,0
2018-02-21T18:38:55.326Z,0
2018-02-21T18:39:57.136Z,0
2018-02-21T18:40:58.979Z,0
2018-02-21T18:42:00.826Z,0
2018-02-21T18:43:02.685Z,0
2018-02-21T18:44:16.800Z,0
2018-02-21T18:45:18.666Z,0
2018-02-21T18:46:20.517Z,0
2018-02-21T18:47:22.368Z,0
2018-02-21T18:48:24.157Z,0
2018-02-21T18:49:25.965Z,0
2018-02-21T18:50:27.837Z,0
2018-02-21T18:51:29.711Z,0
2018-02-21T18:52:31.580Z,0
2018-02-21T18:53:45.719Z,0
2018-02-21T18:54:47.574Z,0
2018-02-21T18:55:49.445Z,0
2018-02-21T18:56:51.300Z,0
2018-02-21T18:57:53.086Z,0
2018-02-21T18:58:54.878Z,0
2018-02-21T18:59:56.660Z,0
2018-02-21T19:00:58.476Z,0
2018-02-21T19:02:00.269Z,0
2018-02-21T19:03:14.423Z,0
2018-02-21T19:04:16.275Z,0
2018-02-21T19:05:18.144Z,0
2018-02-21T19:06:20.017Z,0
2018-02-21T19:07:21.824Z,0
2018-02-21T19:08:23.614Z,0
2018-02-21T19:09:25.485Z,0
2018-02-21T19:10:27.344Z,0
2018-02-21T19:11:29.201Z,0
2018-02-21T19:12:43.339Z,0
2018-02-21T19:13:45.194Z,0
2018-02-21T19:14:47.047Z,0
2018-02-21T19:15:48.898Z,0
2018-02-21T19:16:50.685Z,0
2018-02-21T19:17:52.490Z,0
2018-02-21T19:18:54.357Z,0
2018-02-21T19:19:56.214Z,0
2018-02-21T19:20:58.089Z,0
2018-02-21T19:22:12.276Z,0
2018-02-21T19:23:14.141Z,0
2018-02-21T19:24:16.010Z,0
2018-02-21T19:25:17.844Z,0
2018-02-21T19:26:19.660Z,0
2018-02-21T19:27:21.446Z,0
2018-02-21T19:28:23.296Z,0
2018-02-21T19:29:25.161Z,0
2018-02-21T19:30:27.048Z,0
2018-02-21T19:31:41.245Z,0
2018-02-21T19:32:43.116Z,0
2018-02-21T19:33:44.988Z,0
2018-02-21T19:34:46.839Z,0
2018-02-21T19:35:48.650Z,0
2018-02-21T19:36:50.439Z,0
2018-02-21T19:37:52.310Z,0
2018-02-21T19:38:54.184Z,0
2018-02-21T19:39:56.058Z,0
2018-02-21T19:41:10.189Z,0
2018-02-21T19:42:12.042Z,0
2018-02-21T19:43:13.913Z,0
2018-02-21T19:44:15.760Z,0
2018-02-21T19:45:17.551Z,0
2018-02-21T19:46:19.337Z,0
2018-02-21T19:47:21.208Z,0
2018-02-21T19:48:23.086Z,0
2018-02-21T19:49:24.958Z,0
2018-02-21T19:50:39.092Z,0
2018-02-21T19:51:40.964Z,0
2018-02-21T19:52:42.837Z,0
2018-02-21T19:53:44.707Z,0
2018-02-21T19:54:46.544Z,0
2018-02-21T19:55:48.338Z,0
2018-02-21T19:56:50.188Z,0
2018-02-21T19:57:52.046Z,0
2018-02-21T19:58:53.913Z,0
2018-02-21T20:00:08.033Z,0
2018-02-21T20:01:09.904Z,0
2018-02-21T20:02:11.759Z,0
2018-02-21T20:03:13.629Z,0
2018-02-21T20:04:15.436Z,0
2018-02-21T20:05:17.229Z,0
2018-02-21T20:06:19.073Z,0
2018-02-21T20:07:20.931Z,0
2018-02-21T20:08:22.801Z,0
2018-02-21T20:09:36.937Z,0
2018-02-21T20:10:38.788Z,0
2018-02-21T20:11:40.663Z,0
2018-02-21T20:12:42.534Z,0
2018-02-21T20:13:44.346Z,0
2018-02-21T20:14:46.154Z,0
2018-02-21T20:15:48.067Z,0
2018-02-21T20:16:49.995Z,0
2018-02-21T20:17:51.872Z,0
2018-02-21T20:19:05.981Z,0
2018-02-21T20:20:07.838Z,0
2018-02-21T20:21:09.695Z,0
2018-02-21T20:22:11.748Z,0
2018-02-21T20:23:13.544Z,0
2018-02-21T20:24:15.329Z,0
2018-02-21T20:25:17.210Z,0
2018-02-21T20:26:19.076Z,0
2018-02-21T20:27:20.933Z,0
2018-02-21T20:28:35.055Z,0
2018-02-21T20:29:36.962Z,0
2018-02-21T20:30:38.795Z,0
2018-02-21T20:31:40.667Z,0
2018-02-21T20:32:42.460Z,0
2018-02-21T20:33:44.262Z,0
2018-02-21T20:34:46.114Z,0
2018-02-21T20:35:47.972Z,0
2018-02-21T20:36:49.842Z,0
2018-02-21T20:38:03.968Z,0
2018-02-21T20:39:05.840Z,0
2018-02-21T20:40:07.719Z,0
2018-02-21T20:41:09.590Z,0
2018-02-21T20:42:11.382Z,0
2018-02-21T20:43:13.190Z,0
2018-02-21T20:44:15.066Z,0
2018-02-21T20:45:16.942Z,0
2018-02-21T20:46:18.802Z,0
2018-02-21T20:47:32.941Z,0
2018-02-21T20:48:34.797Z,0
2018-02-21T20:49:36.688Z,0
2018-02-21T20:50:38.559Z,0
2018-02-21T20:51:40.351Z,0
2018-02-21T20:52:42.156Z,0
2018-02-21T20:53:44.010Z,0
2018-02-21T20:54:45.868Z,0
2018-02-21T20:55:47.729Z,0
2018-02-21T20:57:01.848Z,0
2018-02-21T20:58:03.702Z,0
2018-02-21T20:59:05.581Z,0
2018-02-21T21:00:07.449Z,0
2018-02-21T21:01:09.243Z,0
2018-02-21T21:02:11.032Z,0
2018-02-21T21:03:12.889Z,0
2018-02-21T21:04:14.766Z,0
2018-02-21T21:05:16.640Z,0
2018-02-21T21:06:30.790Z,0
2018-02-21T21:07:32.663Z,0
2018-02-21T21:08:34.543Z,0
2018-02-21T21:09:36.400Z,0
2018-02-21T21:10:38.209Z,0
2018-02-21T21:11:40.024Z,0
2018-02-21T21:12:41.885Z,0
2018-02-21T21:13:43.743Z,0
2018-02-21T21:14:45.598Z,0
